PWSweather.com
Personal Weather Stations
Station Observations
KILMORRI1
Goose Lake, Morris, IL 60450

Goose LakeMorris, IL 60450

Lat: 41.34, Lon: -88.3

Elevation: 523

Station Type:

www.gooselakeweather.com

High Low Average
Temperature 11.2°F-11.6°C -10.2°F-23.4°C 4.0°F-15.6°C
Dew Point 5.7°F-14.6°C -15.2°F-26.2°C -2.3°F-19.1°C
Winds 9.2 mph 14.8 kmh Calm Calm 3.0 mph SW4.8 kmh SW
Wind Gusts 13.8 mph22.2 kmh -- 5.0 mph8.0 kmh
Humidity 84% 61% 75%
Pressure 30.26 in1024.7 mb 29.92 in1013.2 mb -
Precipitation 0.01 in0.3 mm - -
Hour Temp Dew Point Humidity Winds Wind Gusts Pressure Precip Precip Rate Daily Precip Total
12:00 AM 4.3°F-15.4°C -0.8°F-18.2°C 79% 4.6 mph WNW7.4 kmh WNW 9.2 mph14.8 kmh 30.08 in1018.6 mb - 0.00 in0.0 mm 0.00 in0.0 mm
12:10 AM 3.8°F-15.7°C -1.3°F-18.5°C 79% 6.9 mph WNW11.1 kmh WNW 9.2 mph14.8 kmh 30.08 in1018.6 mb - 0.00 in0.0 mm 0.00 in0.0 mm
12:20 AM 3.3°F-15.9°C -1.7°F-18.7°C 79% 4.6 mph WNW7.4 kmh WNW 4.6 mph7.4 kmh 30.08 in1018.6 mb - 0.00 in0.0 mm 0.00 in0.0 mm
12:30 AM 3.1°F-16.1°C -1.9°F-18.8°C 79% 5.8 mph WNW9.3 kmh WNW 6.9 mph11.1 kmh 30.09 in1019.0 mb - 0.00 in0.0 mm 0.00 in0.0 mm
12:40 AM 2.6°F-16.3°C -2.4°F-19.1°C 79% 4.6 mph WNW7.4 kmh WNW 8.1 mph13.0 kmh 30.09 in1019.0 mb - 0.00 in0.0 mm 0.00 in0.0 mm
12:50 AM 2.5°F-16.4°C -2.3°F-19.1°C 80% 5.8 mph W9.3 kmh W 10.4 mph16.7 kmh 30.09 in1019.0 mb - 0.00 in0.0 mm 0.00 in0.0 mm
01:00 AM 2.3°F-16.5°C -2.5°F-19.2°C 80% 5.8 mph WNW9.3 kmh WNW 8.1 mph13.0 kmh 30.10 in1019.3 mb - 0.00 in0.0 mm 0.00 in0.0 mm
01:10 AM 2.0°F-16.7°C -2.8°F-19.3°C 80% 5.8 mph W9.3 kmh W 11.5 mph18.5 kmh 30.10 in1019.3 mb - 0.00 in0.0 mm 0.00 in0.0 mm
01:20 AM 1.9°F-16.7°C -2.9°F-19.4°C 80% 5.8 mph W9.3 kmh W 8.1 mph13.0 kmh 30.10 in1019.3 mb - 0.00 in0.0 mm 0.00 in0.0 mm
01:30 AM 1.7°F-16.8°C -3.0°F-19.4°C 80% 5.8 mph W9.3 kmh W 9.2 mph14.8 kmh 30.11 in1019.6 mb - 0.00 in0.0 mm 0.00 in0.0 mm
01:40 AM 1.7°F-16.8°C -3.0°F-19.4°C 80% 4.6 mph W7.4 kmh W 4.6 mph7.4 kmh 30.11 in1019.6 mb - 0.00 in0.0 mm 0.00 in0.0 mm
01:50 AM 1.4°F-17.0°C -3.3°F-19.6°C 80% 4.6 mph W7.4 kmh W 10.4 mph16.7 kmh 30.12 in1020.0 mb - 0.00 in0.0 mm 0.00 in0.0 mm
02:00 AM 1.5°F-16.9°C -3.3°F-19.6°C 80% 5.8 mph W9.3 kmh W 6.9 mph11.1 kmh 30.13 in1020.3 mb - 0.00 in0.0 mm 0.00 in0.0 mm
02:10 AM 1.3°F-17.1°C -3.4°F-19.7°C 80% 5.8 mph WNW9.3 kmh WNW 9.2 mph14.8 kmh 30.12 in1020.0 mb - 0.00 in0.0 mm 0.00 in0.0 mm
02:20 AM 1.1°F-17.2°C -3.6°F-19.8°C 80% 5.8 mph W9.3 kmh W 4.6 mph7.4 kmh 30.13 in1020.3 mb - 0.00 in0.0 mm 0.00 in0.0 mm
02:30 AM 0.9°F-17.3°C -3.8°F-19.9°C 80% 5.8 mph W9.3 kmh W 8.1 mph13.0 kmh 30.13 in1020.3 mb - 0.00 in0.0 mm 0.00 in0.0 mm
02:40 AM 0.5°F-17.5°C -4.2°F-20.1°C 80% 5.8 mph WNW9.3 kmh WNW 9.2 mph14.8 kmh 30.14 in1020.7 mb - 0.00 in0.0 mm 0.00 in0.0 mm
02:50 AM 0.1°F-17.7°C -4.6°F-20.3°C 80% 4.6 mph W7.4 kmh W 9.2 mph14.8 kmh 30.14 in1020.7 mb - 0.00 in0.0 mm 0.00 in0.0 mm
03:00 AM 0.1°F-17.7°C -4.6°F-20.3°C 80% 4.6 mph WNW7.4 kmh WNW 8.1 mph13.0 kmh 30.14 in1020.7 mb - 0.00 in0.0 mm 0.00 in0.0 mm
03:10 AM -0.1°F-17.8°C -4.5°F-20.3°C 81% 3.5 mph W5.6 kmh W 3.5 mph5.6 kmh 30.14 in1020.7 mb - 0.00 in0.0 mm 0.00 in0.0 mm
03:20 AM -0.3°F-17.9°C -4.7°F-20.4°C 81% 3.5 mph W5.6 kmh W 3.5 mph5.6 kmh 30.14 in1020.7 mb - 0.00 in0.0 mm 0.00 in0.0 mm
03:30 AM -0.4°F-18.0°C -4.8°F-20.4°C 81% 3.5 mph W5.6 kmh W 5.8 mph9.3 kmh 30.14 in1020.7 mb - 0.00 in0.0 mm 0.00 in0.0 mm
03:40 AM -0.4°F-18.0°C -4.8°F-20.4°C 81% 3.5 mph W5.6 kmh W 8.1 mph13.0 kmh 30.15 in1021.0 mb - 0.00 in0.0 mm 0.00 in0.0 mm
03:50 AM -0.5°F-18.1°C -4.9°F-20.5°C 81% 3.5 mph W5.6 kmh W 10.4 mph16.7 kmh 30.15 in1021.0 mb - 0.00 in0.0 mm 0.00 in0.0 mm
04:00 AM -0.7°F-18.2°C -5.1°F-20.6°C 81% 3.5 mph W5.6 kmh W 5.8 mph9.3 kmh 30.15 in1021.0 mb - 0.00 in0.0 mm 0.00 in0.0 mm
04:10 AM -1.0°F-18.3°C -5.4°F-20.8°C 81% 3.5 mph WNW5.6 kmh WNW 3.5 mph5.6 kmh 30.15 in1021.0 mb - 0.00 in0.0 mm 0.00 in0.0 mm
04:20 AM -1.4°F-18.6°C -5.8°F-21.0°C 81% 2.3 mph WNW3.7 kmh WNW 3.5 mph5.6 kmh 30.15 in1021.0 mb - 0.00 in0.0 mm 0.00 in0.0 mm
04:30 AM -1.9°F-18.8°C -6.6°F-21.4°C 80% 2.3 mph WNW3.7 kmh WNW 3.5 mph5.6 kmh 30.16 in1021.3 mb - 0.00 in0.0 mm 0.00 in0.0 mm
04:40 AM -2.5°F-19.2°C -7.1°F-21.7°C 80% 2.3 mph W3.7 kmh W 3.5 mph5.6 kmh 30.17 in1021.7 mb - 0.00 in0.0 mm 0.00 in0.0 mm
04:50 AM -2.9°F-19.4°C -7.5°F-21.9°C 80% 2.3 mph WNW3.7 kmh WNW 3.5 mph5.6 kmh 30.17 in1021.7 mb - 0.00 in0.0 mm 0.00 in0.0 mm
05:00 AM -3.2°F-19.6°C -7.8°F-22.1°C 80% 1.2 mph WNW1.9 kmh WNW 2.3 mph3.7 kmh 30.17 in1021.7 mb - 0.00 in0.0 mm 0.00 in0.0 mm
05:10 AM -3.7°F-19.8°C -8.3°F-22.4°C 80% 1.2 mph WNW1.9 kmh WNW 2.3 mph3.7 kmh 30.18 in1022.0 mb - 0.00 in0.0 mm 0.00 in0.0 mm
05:20 AM -4.2°F-20.1°C -8.8°F-22.7°C 80% 2.3 mph WNW3.7 kmh WNW 3.5 mph5.6 kmh 30.18 in1022.0 mb - 0.00 in0.0 mm 0.00 in0.0 mm
05:30 AM -4.4°F-20.2°C -8.8°F-22.7°C 81% Calm Calm 1.2 mph1.9 kmh 30.18 in1022.0 mb - 0.00 in0.0 mm 0.00 in0.0 mm
05:40 AM -4.8°F-20.4°C -9.4°F-23.0°C 80% Calm Calm -- 30.18 in1022.0 mb - 0.00 in0.0 mm 0.00 in0.0 mm
05:50 AM -5.4°F-20.8°C -10.0°F-23.3°C 80% Calm Calm 1.2 mph1.9 kmh 30.19 in1022.4 mb - 0.00 in0.0 mm 0.00 in0.0 mm
06:00 AM -6.9°F-21.6°C -11.7°F-24.3°C 79% Calm Calm 1.2 mph1.9 kmh 30.20 in1022.7 mb - 0.00 in0.0 mm 0.00 in0.0 mm
06:10 AM -8.3°F-22.4°C -13.3°F-25.2°C 78% 1.2 mph WNW1.9 kmh WNW 2.3 mph3.7 kmh 30.20 in1022.7 mb - 0.00 in0.0 mm 0.00 in0.0 mm
06:20 AM -9.2°F-22.9°C -14.2°F-25.7°C 78% 1.2 mph WNW1.9 kmh WNW 2.3 mph3.7 kmh 30.21 in1023.0 mb - 0.00 in0.0 mm 0.00 in0.0 mm
06:30 AM -9.7°F-23.2°C -14.7°F-25.9°C 78% 1.2 mph W1.9 kmh W 3.5 mph5.6 kmh 30.21 in1023.0 mb - 0.00 in0.0 mm 0.00 in0.0 mm
06:40 AM -10.0°F-23.3°C -15.0°F-26.1°C 78% Calm Calm 1.2 mph1.9 kmh 30.21 in1023.0 mb - 0.00 in0.0 mm 0.00 in0.0 mm
06:50 AM -10.2°F-23.4°C -15.2°F-26.2°C 78% 1.2 mph W1.9 kmh W 1.2 mph1.9 kmh 30.22 in1023.4 mb - 0.00 in0.0 mm 0.00 in0.0 mm
07:00 AM -10.0°F-23.3°C -14.7°F-25.9°C 79% 1.2 mph W1.9 kmh W 2.3 mph3.7 kmh 30.22 in1023.4 mb - 0.00 in0.0 mm 0.00 in0.0 mm
07:10 AM -9.9°F-23.3°C -14.7°F-25.9°C 79% 1.2 mph WNW1.9 kmh WNW 2.3 mph3.7 kmh 30.22 in1023.4 mb - 0.00 in0.0 mm 0.00 in0.0 mm
07:20 AM -9.6°F-23.1°C -14.1°F-25.6°C 80% 1.2 mph W1.9 kmh W 2.3 mph3.7 kmh 30.23 in1023.7 mb - 0.00 in0.0 mm 0.00 in0.0 mm
07:30 AM -9.3°F-22.9°C -13.8°F-25.4°C 80% Calm Calm 2.3 mph3.7 kmh 30.23 in1023.7 mb - 0.00 in0.0 mm 0.00 in0.0 mm
07:40 AM -9.2°F-22.9°C -13.5°F-25.3°C 81% 1.2 mph W1.9 kmh W 2.3 mph3.7 kmh 30.23 in1023.7 mb - 0.00 in0.0 mm 0.00 in0.0 mm
07:50 AM -8.6°F-22.6°C -12.9°F-24.9°C 81% 2.3 mph W3.7 kmh W 3.5 mph5.6 kmh 30.23 in1023.7 mb - 0.00 in0.0 mm 0.00 in0.0 mm
08:00 AM -6.6°F-21.4°C -10.4°F-23.6°C 83% 3.5 mph W5.6 kmh W 3.5 mph5.6 kmh 30.23 in1023.7 mb - 0.00 in0.0 mm 0.00 in0.0 mm
08:10 AM -5.2°F-20.7°C -9.0°F-22.8°C 83% 3.5 mph WSW5.6 kmh WSW 5.8 mph9.3 kmh 30.23 in1023.7 mb - 0.00 in0.0 mm 0.00 in0.0 mm
08:20 AM -4.1°F-20.1°C -8.0°F-22.2°C 83% 1.2 mph W1.9 kmh W 2.3 mph3.7 kmh 30.23 in1023.7 mb - 0.00 in0.0 mm 0.00 in0.0 mm
08:30 AM -3.1°F-19.5°C -7.0°F-21.7°C 83% 3.5 mph WNW5.6 kmh WNW 3.5 mph5.6 kmh 30.23 in1023.7 mb - 0.00 in0.0 mm 0.00 in0.0 mm
08:40 AM -2.2°F-19.0°C -6.1°F-21.2°C 83% 3.5 mph WNW5.6 kmh WNW 4.6 mph7.4 kmh 30.23 in1023.7 mb - 0.00 in0.0 mm 0.00 in0.0 mm
08:50 AM -0.7°F-18.2°C -4.4°F-20.2°C 84% 3.5 mph NW5.6 kmh NW 3.5 mph5.6 kmh 30.23 in1023.7 mb - 0.00 in0.0 mm 0.00 in0.0 mm
09:00 AM 0.6°F-17.4°C -3.4°F-19.7°C 83% 3.5 mph WNW5.6 kmh WNW 5.8 mph9.3 kmh 30.24 in1024.0 mb - 0.00 in0.0 mm 0.00 in0.0 mm
09:10 AM 1.1°F-17.2°C -3.1°F-19.5°C 82% 4.6 mph WNW7.4 kmh WNW 6.9 mph11.1 kmh 30.25 in1024.4 mb - 0.00 in0.0 mm 0.00 in0.0 mm
09:20 AM 1.8°F-16.8°C -3.0°F-19.4°C 80% 4.6 mph WNW7.4 kmh WNW 6.9 mph11.1 kmh 30.25 in1024.4 mb - 0.00 in0.0 mm 0.00 in0.0 mm
09:30 AM 2.0°F-16.7°C -2.8°F-19.3°C 80% 4.6 mph WNW7.4 kmh WNW 5.8 mph9.3 kmh 30.25 in1024.4 mb - 0.00 in0.0 mm 0.00 in0.0 mm
09:40 AM 2.8°F-16.2°C -2.2°F-19.0°C 79% 5.8 mph NW9.3 kmh NW 6.9 mph11.1 kmh 30.25 in1024.4 mb - 0.00 in0.0 mm 0.00 in0.0 mm
09:50 AM 2.8°F-16.2°C -2.5°F-19.2°C 78% 5.8 mph NW9.3 kmh NW 9.2 mph14.8 kmh 30.25 in1024.4 mb - 0.00 in0.0 mm 0.00 in0.0 mm
10:00 AM 3.0°F-16.1°C -2.3°F-19.1°C 78% 5.8 mph NW9.3 kmh NW 10.4 mph16.7 kmh 30.25 in1024.4 mb - 0.00 in0.0 mm 0.00 in0.0 mm
10:10 AM 3.1°F-16.1°C -2.5°F-19.2°C 77% 3.5 mph NW5.6 kmh NW 4.6 mph7.4 kmh 30.25 in1024.4 mb - 0.00 in0.0 mm 0.00 in0.0 mm
10:20 AM 3.6°F-15.8°C -2.0°F-18.9°C 77% 4.6 mph NW7.4 kmh NW 6.9 mph11.1 kmh 30.26 in1024.7 mb - 0.00 in0.0 mm 0.00 in0.0 mm
10:30 AM 4.2°F-15.4°C -1.7°F-18.7°C 76% 3.5 mph NW5.6 kmh NW 6.9 mph11.1 kmh 30.25 in1024.4 mb - 0.00 in0.0 mm 0.00 in0.0 mm
10:40 AM 4.1°F-15.5°C -2.1°F-18.9°C 75% 4.6 mph W7.4 kmh W 5.8 mph9.3 kmh 30.25 in1024.4 mb - 0.00 in0.0 mm 0.00 in0.0 mm
10:50 AM 4.7°F-15.2°C -1.5°F-18.6°C 75% 2.3 mph NW3.7 kmh NW 4.6 mph7.4 kmh 30.25 in1024.4 mb - 0.00 in0.0 mm 0.00 in0.0 mm
11:00 AM 4.9°F-15.1°C -1.5°F-18.6°C 74% 3.5 mph NW5.6 kmh NW 5.8 mph9.3 kmh 30.25 in1024.4 mb - 0.00 in0.0 mm 0.00 in0.0 mm
11:10 AM 5.6°F-14.7°C -1.2°F-18.4°C 73% 2.3 mph NW3.7 kmh NW 5.8 mph9.3 kmh 30.24 in1024.0 mb - 0.00 in0.0 mm 0.00 in0.0 mm
11:20 AM 5.1°F-14.9°C -1.7°F-18.7°C 73% 3.5 mph NW5.6 kmh NW 3.5 mph5.6 kmh 30.24 in1024.0 mb - 0.00 in0.0 mm 0.00 in0.0 mm
11:30 AM 5.3°F-14.8°C -1.5°F-18.6°C 73% 2.3 mph NW3.7 kmh NW 3.5 mph5.6 kmh 30.23 in1023.7 mb - 0.00 in0.0 mm 0.00 in0.0 mm
11:40 AM 5.8°F-14.6°C -1.3°F-18.5°C 72% 3.5 mph NW5.6 kmh NW 4.6 mph7.4 kmh 30.23 in1023.7 mb - 0.00 in0.0 mm 0.00 in0.0 mm
11:50 AM 6.0°F-14.4°C -1.4°F-18.6°C 71% 2.3 mph NW3.7 kmh NW 3.5 mph5.6 kmh 30.22 in1023.4 mb - 0.00 in0.0 mm 0.00 in0.0 mm
12:00 PM 6.4°F-14.2°C -1.3°F-18.5°C 70% 1.2 mph NW1.9 kmh NW 2.3 mph3.7 kmh 30.22 in1023.4 mb - 0.00 in0.0 mm 0.00 in0.0 mm
12:10 PM 6.5°F-14.2°C -2.2°F-19.0°C 67% 2.3 mph NW3.7 kmh NW 3.5 mph5.6 kmh 30.21 in1023.0 mb - 0.00 in0.0 mm 0.00 in0.0 mm
12:20 PM 6.9°F-13.9°C -1.7°F-18.7°C 67% 2.3 mph NW3.7 kmh NW 3.5 mph5.6 kmh 30.21 in1023.0 mb - 0.00 in0.0 mm 0.00 in0.0 mm
12:30 PM 6.9°F-13.9°C -2.1°F-18.9°C 66% 3.5 mph NW5.6 kmh NW 4.6 mph7.4 kmh 30.20 in1022.7 mb - 0.00 in0.0 mm 0.00 in0.0 mm
12:40 PM 7.5°F-13.6°C -1.5°F-18.6°C 66% 3.5 mph NW5.6 kmh NW 4.6 mph7.4 kmh 30.20 in1022.7 mb - 0.00 in0.0 mm 0.00 in0.0 mm
12:50 PM 8.2°F-13.2°C -1.2°F-18.4°C 65% 3.5 mph NW5.6 kmh NW 5.8 mph9.3 kmh 30.20 in1022.7 mb - 0.00 in0.0 mm 0.00 in0.0 mm
01:00 PM 7.9°F-13.4°C -1.4°F-18.6°C 65% 2.3 mph NW3.7 kmh NW 3.5 mph5.6 kmh 30.20 in1022.7 mb - 0.00 in0.0 mm 0.00 in0.0 mm
01:10 PM 8.0°F-13.3°C -1.6°F-18.7°C 64% 2.3 mph NW3.7 kmh NW 3.5 mph5.6 kmh 30.20 in1022.7 mb - 0.00 in0.0 mm 0.00 in0.0 mm
01:20 PM 7.9°F-13.4°C -1.4°F-18.6°C 65% 2.3 mph NNW3.7 kmh NNW 3.5 mph5.6 kmh 30.20 in1022.7 mb - 0.00 in0.0 mm 0.00 in0.0 mm
01:30 PM 8.5°F-13.1°C -0.9°F-18.3°C 65% 3.5 mph NW5.6 kmh NW 4.6 mph7.4 kmh 30.19 in1022.4 mb - 0.00 in0.0 mm 0.00 in0.0 mm
01:40 PM 8.3°F-13.2°C -1.4°F-18.6°C 64% 1.2 mph N1.9 kmh N 2.3 mph3.7 kmh 30.18 in1022.0 mb - 0.00 in0.0 mm 0.00 in0.0 mm
01:50 PM 8.5°F-13.1°C -0.9°F-18.3°C 65% 1.2 mph NNW1.9 kmh NNW 3.5 mph5.6 kmh 30.18 in1022.0 mb - 0.00 in0.0 mm 0.00 in0.0 mm
02:00 PM 9.2°F-12.7°C -0.6°F-18.1°C 64% 2.3 mph NNW3.7 kmh NNW 3.5 mph5.6 kmh 30.17 in1021.7 mb - 0.00 in0.0 mm 0.00 in0.0 mm
02:10 PM 8.4°F-13.1°C -1.3°F-18.5°C 64% 2.3 mph NNW3.7 kmh NNW 3.5 mph5.6 kmh 30.16 in1021.3 mb - 0.00 in0.0 mm 0.00 in0.0 mm
02:20 PM 9.3°F-12.6°C -1.1°F-18.4°C 62% 2.3 mph NW3.7 kmh NW 3.5 mph5.6 kmh 30.16 in1021.3 mb - 0.00 in0.0 mm 0.00 in0.0 mm
02:30 PM 10.5°F-11.9°C 0.1°F-17.7°C 62% 2.3 mph NW3.7 kmh NW 3.5 mph5.6 kmh 30.16 in1021.3 mb - 0.00 in0.0 mm 0.00 in0.0 mm
02:40 PM 10.1°F-12.2°C 0.0°F-17.8°C 63% 3.5 mph NW5.6 kmh NW 4.6 mph7.4 kmh 30.17 in1021.7 mb - 0.00 in0.0 mm 0.00 in0.0 mm
02:50 PM 9.8°F-12.3°C 0.1°F-17.7°C 64% 2.3 mph WNW3.7 kmh WNW 3.5 mph5.6 kmh 30.16 in1021.3 mb - 0.00 in0.0 mm 0.00 in0.0 mm
03:00 PM 10.0°F-12.2°C 0.2°F-17.7°C 64% 2.3 mph NNW3.7 kmh NNW 3.5 mph5.6 kmh 30.16 in1021.3 mb - 0.00 in0.0 mm 0.00 in0.0 mm
03:10 PM 10.3°F-12.1°C 0.5°F-17.5°C 64% 2.3 mph N3.7 kmh N 2.3 mph3.7 kmh 30.16 in1021.3 mb - 0.00 in0.0 mm 0.00 in0.0 mm
03:20 PM 11.2°F-11.6°C 0.3°F-17.6°C 61% 1.2 mph NW1.9 kmh NW 2.3 mph3.7 kmh 30.14 in1020.7 mb - 0.00 in0.0 mm 0.00 in0.0 mm
03:30 PM 9.9°F-12.3°C -0.2°F-17.9°C 63% 2.3 mph NE3.7 kmh NE 3.5 mph5.6 kmh 30.14 in1020.7 mb - 0.01 in0.3 mm 0.01 in0.3 mm
03:40 PM 9.2°F-12.7°C 0.1°F-17.7°C 66% 1.2 mph NE1.9 kmh NE 2.3 mph3.7 kmh 30.14 in1020.7 mb - 0.00 in0.0 mm 0.01 in0.3 mm
03:50 PM 9.0°F-12.8°C -0.4°F-18.0°C 65% Calm Calm 1.2 mph1.9 kmh 30.14 in1020.7 mb - 0.00 in0.0 mm 0.01 in0.3 mm
04:00 PM 9.2°F-12.7°C -0.5°F-18.1°C 64% 3.5 mph SW5.6 kmh SW 4.6 mph7.4 kmh 30.15 in1021.0 mb - 0.00 in0.0 mm 0.01 in0.3 mm
04:10 PM 8.5°F-13.1°C -0.5°F-18.1°C 66% 2.3 mph SSW3.7 kmh SSW 3.5 mph5.6 kmh 30.14 in1020.7 mb - 0.00 in0.0 mm 0.01 in0.3 mm
04:20 PM 8.3°F-13.2°C -0.4°F-18.0°C 67% 2.3 mph SW3.7 kmh SW 3.5 mph5.6 kmh 30.15 in1021.0 mb - 0.00 in0.0 mm 0.01 in0.3 mm
04:30 PM 8.4°F-13.1°C 0.0°F-17.8°C 68% 4.6 mph SW7.4 kmh SW 4.6 mph7.4 kmh 30.16 in1021.3 mb - 0.00 in0.0 mm 0.01 in0.3 mm
04:40 PM 8.2°F-13.2°C -0.2°F-17.9°C 68% 2.3 mph SSW3.7 kmh SSW 3.5 mph5.6 kmh 30.14 in1020.7 mb - 0.00 in0.0 mm 0.01 in0.3 mm
04:50 PM 8.2°F-13.2°C 0.1°F-17.7°C 69% Calm Calm 1.2 mph1.9 kmh 30.14 in1020.7 mb - 0.00 in0.0 mm 0.01 in0.3 mm
05:00 PM 8.1°F-13.3°C 0.3°F-17.6°C 70% 1.2 mph S1.9 kmh S 2.3 mph3.7 kmh 30.14 in1020.7 mb - 0.00 in0.0 mm 0.01 in0.3 mm
05:10 PM 7.8°F-13.4°C 0.0°F-17.8°C 70% 1.2 mph S1.9 kmh S 2.3 mph3.7 kmh 30.13 in1020.3 mb - 0.00 in0.0 mm 0.01 in0.3 mm
05:20 PM 7.8°F-13.4°C 0.3°F-17.6°C 71% 1.2 mph S1.9 kmh S 2.3 mph3.7 kmh 30.12 in1020.0 mb - 0.00 in0.0 mm 0.01 in0.3 mm
05:30 PM 7.8°F-13.4°C 0.7°F-17.4°C 72% 1.2 mph S1.9 kmh S 2.3 mph3.7 kmh 30.11 in1019.6 mb - 0.00 in0.0 mm 0.01 in0.3 mm
05:40 PM 7.8°F-13.4°C 0.7°F-17.4°C 72% 1.2 mph SSE1.9 kmh SSE 3.5 mph5.6 kmh 30.11 in1019.6 mb - 0.00 in0.0 mm 0.01 in0.3 mm
05:50 PM 7.8°F-13.4°C 0.9°F-17.3°C 73% 1.2 mph SSE1.9 kmh SSE 2.3 mph3.7 kmh 30.10 in1019.3 mb - 0.00 in0.0 mm 0.01 in0.3 mm
06:00 PM 7.8°F-13.4°C 0.9°F-17.3°C 73% 1.2 mph SE1.9 kmh SE 2.3 mph3.7 kmh 30.09 in1019.0 mb - 0.00 in0.0 mm 0.01 in0.3 mm
06:10 PM 7.8°F-13.4°C 1.2°F-17.1°C 74% 1.2 mph SE1.9 kmh SE 2.3 mph3.7 kmh 30.09 in1019.0 mb - 0.00 in0.0 mm 0.01 in0.3 mm
06:20 PM 7.8°F-13.4°C 1.2°F-17.1°C 74% 1.2 mph SE1.9 kmh SE 2.3 mph3.7 kmh 30.08 in1018.6 mb - 0.00 in0.0 mm 0.01 in0.3 mm
06:30 PM 8.0°F-13.3°C 1.7°F-16.8°C 75% 1.2 mph SE1.9 kmh SE 2.3 mph3.7 kmh 30.08 in1018.6 mb - 0.00 in0.0 mm 0.01 in0.3 mm
06:40 PM 8.3°F-13.2°C 2.0°F-16.7°C 75% Calm Calm 1.2 mph1.9 kmh 30.10 in1019.3 mb - 0.00 in0.0 mm 0.01 in0.3 mm
06:50 PM 8.5°F-13.1°C 2.2°F-16.6°C 75% Calm Calm -- 30.10 in1019.3 mb - 0.00 in0.0 mm 0.01 in0.3 mm
07:00 PM 8.7°F-12.9°C 2.4°F-16.4°C 75% 2.3 mph SE3.7 kmh SE 3.5 mph5.6 kmh 30.11 in1019.6 mb - 0.00 in0.0 mm 0.01 in0.3 mm
07:10 PM 8.7°F-12.9°C 2.1°F-16.6°C 74% 1.2 mph SE1.9 kmh SE 3.5 mph5.6 kmh 30.11 in1019.6 mb - 0.00 in0.0 mm 0.01 in0.3 mm
07:20 PM 8.7°F-12.9°C 2.1°F-16.6°C 74% 3.5 mph ESE5.6 kmh ESE 6.9 mph11.1 kmh 30.11 in1019.6 mb - 0.00 in0.0 mm 0.01 in0.3 mm
07:30 PM 8.7°F-12.9°C 2.1°F-16.6°C 74% 2.3 mph ESE3.7 kmh ESE 5.8 mph9.3 kmh 30.10 in1019.3 mb - 0.00 in0.0 mm 0.01 in0.3 mm
07:40 PM 8.6°F-13.0°C 2.0°F-16.7°C 74% 5.8 mph ESE9.3 kmh ESE 6.9 mph11.1 kmh 30.09 in1019.0 mb - 0.00 in0.0 mm 0.01 in0.3 mm
07:50 PM 8.5°F-13.1°C 2.2°F-16.6°C 75% 4.6 mph ESE7.4 kmh ESE 8.1 mph13.0 kmh 30.09 in1019.0 mb - 0.00 in0.0 mm 0.01 in0.3 mm
08:00 PM 8.6°F-13.0°C 2.3°F-16.5°C 75% 3.5 mph E5.6 kmh E 8.1 mph13.0 kmh 30.09 in1019.0 mb - 0.00 in0.0 mm 0.01 in0.3 mm
08:10 PM 8.7°F-12.9°C 2.4°F-16.4°C 75% 3.5 mph SE5.6 kmh SE 5.8 mph9.3 kmh 30.08 in1018.6 mb - 0.00 in0.0 mm 0.01 in0.3 mm
08:20 PM 8.7°F-12.9°C 2.4°F-16.4°C 75% 4.6 mph ESE7.4 kmh ESE 6.9 mph11.1 kmh 30.07 in1018.3 mb - 0.00 in0.0 mm 0.01 in0.3 mm
08:30 PM 8.9°F-12.8°C 2.9°F-16.2°C 76% 5.8 mph E9.3 kmh E 6.9 mph11.1 kmh 30.06 in1017.9 mb - 0.00 in0.0 mm 0.01 in0.3 mm
08:40 PM 9.0°F-12.8°C 2.7°F-16.3°C 75% 5.8 mph ESE9.3 kmh ESE 6.9 mph11.1 kmh 30.05 in1017.6 mb - 0.00 in0.0 mm 0.01 in0.3 mm
08:50 PM 9.0°F-12.8°C 2.4°F-16.4°C 74% 3.5 mph ESE5.6 kmh ESE 6.9 mph11.1 kmh 30.05 in1017.6 mb - 0.00 in0.0 mm 0.01 in0.3 mm
09:00 PM 9.1°F-12.7°C 2.5°F-16.4°C 74% 4.6 mph E7.4 kmh E 6.9 mph11.1 kmh 30.04 in1017.3 mb - 0.00 in0.0 mm 0.01 in0.3 mm
09:10 PM 9.3°F-12.6°C 2.7°F-16.3°C 74% 4.6 mph ESE7.4 kmh ESE 10.4 mph16.7 kmh 30.03 in1016.9 mb - 0.00 in0.0 mm 0.01 in0.3 mm
09:20 PM 9.4°F-12.6°C 2.8°F-16.2°C 74% 4.6 mph ESE7.4 kmh ESE 4.6 mph7.4 kmh 30.02 in1016.6 mb - 0.00 in0.0 mm 0.01 in0.3 mm
09:30 PM 9.6°F-12.4°C 2.7°F-16.3°C 73% 3.5 mph ESE5.6 kmh ESE 6.9 mph11.1 kmh 30.01 in1016.3 mb - 0.00 in0.0 mm 0.01 in0.3 mm
09:40 PM 9.8°F-12.3°C 2.9°F-16.2°C 73% 6.9 mph ESE11.1 kmh ESE 9.2 mph14.8 kmh 30.01 in1016.3 mb - 0.00 in0.0 mm 0.01 in0.3 mm
09:50 PM 10.0°F-12.2°C 3.1°F-16.1°C 73% 5.8 mph ESE9.3 kmh ESE 9.2 mph14.8 kmh 29.99 in1015.6 mb - 0.00 in0.0 mm 0.01 in0.3 mm
10:00 PM 10.2°F-12.1°C 3.3°F-15.9°C 73% 4.6 mph ESE7.4 kmh ESE 8.1 mph13.0 kmh 29.99 in1015.6 mb - 0.00 in0.0 mm 0.01 in0.3 mm
10:10 PM 10.5°F-11.9°C 3.8°F-15.7°C 74% 5.8 mph E9.3 kmh E 6.9 mph11.1 kmh 29.98 in1015.2 mb - 0.00 in0.0 mm 0.01 in0.3 mm
10:20 PM 10.6°F-11.9°C 3.9°F-15.6°C 74% 8.1 mph E13.0 kmh E 8.1 mph13.0 kmh 29.96 in1014.6 mb - 0.00 in0.0 mm 0.01 in0.3 mm
10:30 PM 10.7°F-11.8°C 4.0°F-15.6°C 74% 8.1 mph E13.0 kmh E 10.4 mph16.7 kmh 29.96 in1014.6 mb - 0.00 in0.0 mm 0.01 in0.3 mm
10:40 PM 10.6°F-11.9°C 4.0°F-15.6°C 74% 6.9 mph E11.1 kmh E 10.4 mph16.7 kmh 29.95 in1014.2 mb - 0.00 in0.0 mm 0.01 in0.3 mm
10:50 PM 10.7°F-11.8°C 4.1°F-15.5°C 74% 8.1 mph E13.0 kmh E 12.7 mph20.4 kmh 29.95 in1014.2 mb - 0.00 in0.0 mm 0.01 in0.3 mm
11:00 PM 10.9°F-11.7°C 4.2°F-15.4°C 74% 8.1 mph E13.0 kmh E 12.7 mph20.4 kmh 29.95 in1014.2 mb - 0.00 in0.0 mm 0.01 in0.3 mm
11:10 PM 11.0°F-11.7°C 4.3°F-15.4°C 74% 6.9 mph E11.1 kmh E 8.1 mph13.0 kmh 29.95 in1014.2 mb - 0.00 in0.0 mm 0.01 in0.3 mm
11:20 PM 11.0°F-11.7°C 4.6°F-15.2°C 75% 8.1 mph E13.0 kmh E 9.2 mph14.8 kmh 29.95 in1014.2 mb - 0.00 in0.0 mm 0.01 in0.3 mm
11:30 PM 10.9°F-11.7°C 4.8°F-15.1°C 76% 8.1 mph E13.0 kmh E 10.4 mph16.7 kmh 29.94 in1013.9 mb - 0.00 in0.0 mm 0.01 in0.3 mm
11:40 PM 10.9°F-11.7°C 5.4°F-14.8°C 78% 9.2 mph E14.8 kmh E 13.8 mph22.2 kmh 29.93 in1013.5 mb - 0.00 in0.0 mm 0.01 in0.3 mm
11:50 PM 10.9°F-11.7°C 5.7°F-14.6°C 79% 6.9 mph E11.1 kmh E 10.4 mph16.7 kmh 29.92 in1013.2 mb - 0.00 in0.0 mm 0.01 in0.3 mm